createdAt,value
2023-01-26T00:00:02.109Z,1.30
2023-01-26T00:01:34.833Z,1.30
2023-01-26T00:03:07.517Z,1.20
2023-01-26T00:04:40.209Z,1.30
2023-01-26T00:06:14.798Z,1.30
2023-01-26T00:07:47.491Z,1.20
2023-01-26T00:09:20.309Z,1.20
2023-01-26T00:10:54.330Z,1.20
2023-01-26T00:12:27.014Z,1.30
2023-01-26T00:14:01.197Z,1.30
2023-01-26T00:15:34.304Z,1.30
2023-01-26T00:17:06.993Z,1.30
2023-01-26T00:18:40.702Z,1.30
2023-01-26T00:20:13.997Z,1.30
2023-01-26T00:21:46.748Z,1.30
2023-01-26T00:23:19.424Z,1.30
2023-01-26T00:24:51.188Z,1.30
2023-01-26T00:26:27.733Z,1.20
2023-01-26T00:28:00.448Z,1.20
2023-01-26T00:29:32.179Z,1.20
2023-01-26T00:31:05.663Z,1.20
2023-01-26T00:32:39.306Z,1.20
2023-01-26T00:34:11.988Z,1.20
2023-01-26T00:35:44.864Z,1.20
2023-01-26T00:37:17.581Z,1.20
2023-01-26T00:38:50.400Z,1.20
2023-01-26T00:40:23.092Z,1.10
2023-01-26T00:42:09.891Z,1.10
2023-01-26T00:43:42.614Z,1.10
2023-01-26T00:45:15.383Z,1.10
2023-01-26T00:46:47.141Z,1.20
2023-01-26T00:48:19.930Z,1.20
2023-01-26T00:49:52.610Z,1.20
2023-01-26T00:51:25.317Z,1.20
2023-01-26T00:52:58.225Z,1.20
2023-01-26T00:54:31.265Z,1.20
2023-01-26T00:56:03.989Z,1.20
2023-01-26T00:57:38.077Z,1.20
2023-01-26T00:59:09.969Z,1.20
2023-01-26T01:00:42.734Z,1.20
2023-01-26T01:02:15.582Z,1.20
2023-01-26T01:03:47.358Z,1.20
2023-01-26T01:05:20.127Z,1.20
2023-01-26T01:06:51.925Z,1.20
2023-01-26T01:08:24.658Z,1.10
2023-01-26T01:09:57.355Z,1.10
2023-01-26T01:11:30.061Z,1.00
2023-01-26T01:13:03.123Z,1.00
2023-01-26T01:14:35.795Z,1.00
2023-01-26T01:16:09.648Z,1.00
2023-01-26T01:17:42.610Z,1.00
2023-01-26T01:19:16.514Z,1.00
2023-01-26T01:20:48.254Z,1.00
2023-01-26T01:22:21.054Z,1.00
2023-01-26T01:23:54.109Z,1.00
2023-01-26T01:25:25.873Z,1.00
2023-01-26T01:26:58.563Z,1.00
2023-01-26T01:28:32.544Z,1.00
2023-01-26T01:30:07.985Z,1.00
2023-01-26T01:31:43.128Z,1.00
2023-01-26T01:33:14.897Z,1.10
2023-01-26T01:34:48.551Z,1.10
2023-01-26T01:36:20.338Z,1.00
2023-01-26T01:37:52.996Z,1.00
2023-01-26T01:39:25.776Z,1.00
2023-01-26T01:40:57.606Z,1.00
2023-01-26T01:42:30.305Z,1.00
2023-01-26T01:44:16.150Z,0.90
2023-01-26T01:45:49.804Z,0.90
2023-01-26T01:47:26.599Z,0.90
2023-01-26T01:49:02.588Z,0.90
2023-01-26T01:50:40.199Z,0.90
2023-01-26T01:52:17.498Z,0.90
2023-01-26T01:53:53.032Z,0.80
2023-01-26T01:55:26.104Z,0.70
2023-01-26T01:57:03.444Z,0.70
2023-01-26T01:58:40.151Z,0.70
2023-01-26T02:00:16.758Z,0.70
2023-01-26T02:01:50.990Z,0.70
2023-01-26T02:03:23.203Z,0.70
2023-01-26T02:05:01.496Z,0.80
2023-01-26T02:06:38.823Z,0.80
2023-01-26T02:08:13.268Z,0.70
2023-01-26T02:10:04.152Z,0.70
2023-01-26T02:11:41.176Z,0.70
2023-01-26T02:13:13.465Z,0.60
2023-01-26T02:14:46.993Z,0.60
2023-01-26T02:16:21.348Z,0.60
2023-01-26T02:17:54.821Z,0.60
2023-01-26T02:19:38.453Z,0.60
2023-01-26T02:21:13.940Z,0.60
2023-01-26T02:22:51.286Z,0.60
2023-01-26T02:24:28.778Z,0.60
2023-01-26T02:26:11.273Z,0.60
2023-01-26T02:27:44.304Z,0.60
2023-01-26T02:29:17.110Z,0.60
2023-01-26T02:30:50.557Z,0.60
2023-01-26T02:32:23.251Z,0.60
2023-01-26T02:33:55.956Z,0.70
2023-01-26T02:35:27.738Z,0.70
2023-01-26T02:37:01.621Z,0.70
2023-01-26T02:38:40.270Z,0.70
2023-01-26T02:40:22.015Z,0.60
2023-01-26T02:42:13.962Z,0.70
2023-01-26T02:43:46.641Z,0.70
2023-01-26T02:45:19.437Z,0.70
2023-01-26T02:46:51.189Z,0.70
2023-01-26T02:48:38.138Z,0.70
2023-01-26T02:50:11.951Z,0.70
2023-01-26T02:51:43.871Z,0.70
2023-01-26T02:53:16.554Z,0.70
2023-01-26T02:55:06.728Z,0.70
2023-01-26T02:56:40.827Z,0.70
2023-01-26T02:58:14.842Z,0.70
2023-01-26T02:59:46.603Z,0.70
2023-01-26T03:01:19.276Z,0.80
2023-01-26T03:02:54.401Z,0.80
2023-01-26T03:04:27.250Z,0.80
2023-01-26T03:05:59.954Z,0.80
2023-01-26T03:07:32.972Z,0.80
2023-01-26T03:09:05.643Z,0.80
2023-01-26T03:10:38.452Z,0.80
2023-01-26T03:12:11.351Z,0.80
2023-01-26T03:13:45.402Z,0.80
2023-01-26T03:15:32.201Z,0.80
2023-01-26T03:17:04.891Z,0.80
2023-01-26T03:18:55.622Z,0.80
2023-01-26T03:20:46.186Z,0.80
2023-01-26T03:22:36.659Z,0.80
2023-01-26T03:24:30.554Z,0.80
2023-01-26T03:26:20.758Z,0.80
2023-01-26T03:27:53.434Z,0.70
2023-01-26T03:29:28.226Z,0.70
2023-01-26T03:31:00.975Z,0.70
2023-01-26T03:32:32.861Z,0.60
2023-01-26T03:34:05.736Z,0.60
2023-01-26T03:35:38.657Z,0.60
2023-01-26T03:37:11.723Z,0.60
2023-01-26T03:38:44.418Z,0.50
2023-01-26T03:40:34.642Z,0.60
2023-01-26T03:42:25.034Z,0.60
2023-01-26T03:44:15.417Z,0.50
2023-01-26T03:46:07.220Z,0.50
2023-01-26T03:47:57.512Z,0.60
2023-01-26T03:49:47.920Z,0.50
2023-01-26T03:51:38.253Z,0.50
2023-01-26T03:53:32.641Z,0.50
2023-01-26T03:55:23.832Z,0.40
2023-01-26T03:56:56.521Z,0.60
2023-01-26T03:58:30.145Z,0.60
2023-01-26T04:00:03.049Z,0.60
2023-01-26T04:01:39.190Z,0.60
2023-01-26T04:03:29.817Z,0.60
2023-01-26T04:05:20.264Z,0.60
2023-01-26T04:07:10.892Z,0.60
2023-01-26T04:08:43.612Z,0.60
2023-01-26T04:10:17.032Z,0.60
2023-01-26T04:11:50.057Z,0.60
2023-01-26T04:13:42.513Z,0.60
2023-01-26T04:15:32.949Z,0.60
2023-01-26T04:17:24.493Z,0.60
2023-01-26T04:19:14.856Z,0.60
2023-01-26T04:21:05.144Z,0.60
2023-01-26T04:22:43.563Z,0.60
2023-01-26T04:24:17.263Z,0.50
2023-01-26T04:25:50.320Z,0.50
2023-01-26T04:27:22.081Z,0.50
2023-01-26T04:28:54.940Z,0.50
2023-01-26T04:30:27.671Z,0.50
2023-01-26T04:32:00.392Z,0.50
2023-01-26T04:33:34.415Z,0.40
2023-01-26T04:35:08.314Z,0.40
2023-01-26T04:36:41.325Z,0.40
2023-01-26T04:38:14.010Z,0.40
2023-01-26T04:39:46.690Z,0.40
2023-01-26T04:41:19.504Z,0.40
2023-01-26T04:42:52.193Z,0.40
2023-01-26T04:44:24.877Z,0.40
2023-01-26T04:46:02.008Z,0.40
2023-01-26T04:47:34.798Z,0.40
2023-01-26T04:49:08.036Z,0.40
2023-01-26T04:50:40.718Z,0.40
2023-01-26T04:52:13.662Z,0.40
2023-01-26T04:53:46.620Z,0.40
2023-01-26T04:55:19.634Z,0.40
2023-01-26T04:56:52.442Z,0.40
2023-01-26T04:58:24.381Z,0.40
2023-01-26T04:59:57.084Z,0.40
2023-01-26T05:01:30.599Z,0.30
2023-01-26T05:03:03.285Z,0.30
2023-01-26T05:04:37.551Z,0.40
2023-01-26T05:06:10.538Z,0.40
2023-01-26T05:07:43.219Z,0.40
2023-01-26T05:09:15.917Z,0.40
2023-01-26T05:10:49.480Z,0.40
2023-01-26T05:12:33.352Z,0.40
2023-01-26T05:14:06.041Z,0.50
2023-01-26T05:15:39.006Z,0.50
2023-01-26T05:17:11.701Z,0.50
2023-01-26T05:18:44.944Z,0.50
2023-01-26T05:20:19.307Z,0.50
2023-01-26T05:21:51.979Z,0.50
2023-01-26T05:23:24.739Z,0.50
2023-01-26T05:24:57.410Z,0.50
2023-01-26T05:26:30.357Z,0.50
2023-01-26T05:28:02.260Z,0.50
2023-01-26T05:29:34.940Z,0.50
2023-01-26T05:31:07.673Z,0.50
2023-01-26T05:32:40.437Z,0.50
2023-01-26T05:34:13.135Z,0.50
2023-01-26T05:35:47.159Z,0.50
2023-01-26T05:37:19.855Z,0.50
2023-01-26T05:38:52.548Z,0.50
2023-01-26T05:40:26.042Z,0.50
2023-01-26T05:41:58.730Z,0.50
2023-01-26T05:43:30.727Z,0.50
2023-01-26T05:45:03.566Z,0.50
2023-01-26T05:46:36.255Z,0.50
2023-01-26T05:48:08.961Z,0.50
2023-01-26T05:49:42.899Z,0.50
2023-01-26T05:51:16.908Z,0.50
2023-01-26T05:52:49.894Z,0.60
2023-01-26T05:54:21.642Z,0.60
2023-01-26T05:55:54.344Z,0.60
2023-01-26T05:57:26.113Z,0.60
2023-01-26T05:58:58.795Z,0.60
2023-01-26T06:00:31.593Z,0.60
2023-01-26T06:02:04.684Z,0.60
2023-01-26T06:03:37.405Z,0.60
2023-01-26T06:05:10.681Z,0.60
2023-01-26T06:06:44.831Z,0.60
2023-01-26T06:08:17.509Z,0.60
2023-01-26T06:09:50.221Z,0.60
2023-01-26T06:11:22.910Z,0.60
2023-01-26T06:12:55.637Z,0.50
2023-01-26T06:14:28.406Z,0.50
2023-01-26T06:16:01.894Z,0.60
2023-01-26T06:17:34.599Z,0.50
2023-01-26T06:19:07.614Z,0.50
2023-01-26T06:20:41.853Z,0.50
2023-01-26T06:22:16.883Z,0.50
2023-01-26T06:23:49.644Z,0.50
2023-01-26T06:25:22.358Z,0.50
2023-01-26T06:26:55.274Z,0.50
2023-01-26T06:28:28.563Z,0.50
2023-01-26T06:30:01.234Z,0.50
2023-01-26T06:31:34.087Z,0.50
2023-01-26T06:33:07.462Z,0.50
2023-01-26T06:34:40.414Z,0.50
2023-01-26T06:36:14.787Z,0.50
2023-01-26T06:37:51.346Z,0.50
2023-01-26T06:39:24.153Z,0.50
2023-01-26T06:40:59.869Z,0.50
2023-01-26T06:42:32.544Z,0.50
2023-01-26T06:44:05.328Z,0.50
2023-01-26T06:45:38.122Z,0.50
2023-01-26T06:47:12.221Z,0.50
2023-01-26T06:48:44.912Z,0.40
2023-01-26T06:50:19.860Z,0.40
2023-01-26T06:52:03.197Z,0.40
2023-01-26T06:53:39.970Z,0.40
2023-01-26T06:55:19.567Z,0.40
2023-01-26T06:56:52.256Z,0.40
2023-01-26T06:58:25.004Z,0.30
2023-01-26T06:59:57.899Z,0.30
2023-01-26T07:01:34.427Z,0.30
2023-01-26T07:03:07.145Z,0.30
2023-01-26T07:04:39.830Z,0.30
2023-01-26T07:06:12.534Z,0.30
2023-01-26T07:07:45.226Z,0.20
2023-01-26T07:09:19.223Z,0.20
2023-01-26T07:10:52.076Z,0.20
2023-01-26T07:12:24.945Z,0.10
2023-01-26T07:13:58.130Z,0.10
2023-01-26T07:15:30.861Z,0.10
2023-01-26T07:17:04.051Z,0.10
2023-01-26T07:18:37.095Z,0.10
2023-01-26T07:20:11.396Z,0.10
2023-01-26T07:21:44.303Z,0.20
2023-01-26T07:23:16.980Z,0.20
2023-01-26T07:24:51.028Z,0.20
2023-01-26T07:26:23.877Z,0.20
2023-01-26T07:27:57.340Z,0.20
2023-01-26T07:29:30.665Z,0.20
2023-01-26T07:31:04.891Z,0.20
2023-01-26T07:32:37.586Z,0.20
2023-01-26T07:34:10.547Z,0.20
2023-01-26T07:35:43.356Z,0.30
2023-01-26T07:37:16.087Z,0.30
2023-01-26T07:38:48.805Z,0.20
2023-01-26T07:40:22.821Z,0.30
2023-01-26T07:41:55.501Z,0.30
2023-01-26T07:43:28.181Z,0.30
2023-01-26T07:45:01.335Z,0.30
2023-01-26T07:46:34.052Z,0.30
2023-01-26T07:48:06.907Z,0.30
2023-01-26T07:49:39.592Z,0.30
2023-01-26T07:51:12.756Z,0.30
2023-01-26T07:52:45.426Z,0.30
2023-01-26T07:54:18.113Z,0.30
2023-01-26T07:55:52.124Z,0.30
2023-01-26T07:57:24.800Z,0.30
2023-01-26T07:58:57.809Z,0.30
2023-01-26T08:00:30.620Z,0.30
2023-01-26T08:02:03.372Z,0.30
2023-01-26T08:03:36.225Z,0.30
2023-01-26T08:05:09.894Z,0.30
2023-01-26T08:06:42.593Z,0.20
2023-01-26T08:08:15.320Z,0.20
2023-01-26T08:09:48.015Z,0.20
2023-01-26T08:11:24.205Z,0.30
2023-01-26T08:12:56.873Z,0.20
2023-01-26T08:14:45.097Z,0.20
2023-01-26T08:16:19.348Z,0.20
2023-01-26T08:17:54.441Z,0.30
2023-01-26T08:19:27.288Z,0.20
2023-01-26T08:21:00.451Z,0.20
2023-01-26T08:22:33.160Z,0.20
2023-01-26T08:24:06.425Z,0.20
2023-01-26T08:25:39.175Z,0.20
2023-01-26T08:27:14.635Z,0.20
2023-01-26T08:28:47.844Z,0.20
2023-01-26T08:30:20.875Z,0.20
2023-01-26T08:31:53.731Z,0.20
2023-01-26T08:33:26.499Z,0.20
2023-01-26T08:34:59.177Z,0.20
2023-01-26T08:36:31.872Z,0.30
2023-01-26T08:38:04.888Z,0.30
2023-01-26T08:39:37.552Z,0.30
2023-01-26T08:41:10.896Z,0.30
2023-01-26T08:42:44.948Z,0.30
2023-01-26T08:44:17.629Z,0.20
2023-01-26T08:45:50.397Z,0.30
2023-01-26T08:47:23.229Z,0.20
2023-01-26T08:48:55.931Z,0.20
2023-01-26T08:50:28.658Z,0.20
2023-01-26T08:52:01.365Z,0.20
2023-01-26T08:53:35.467Z,0.30
2023-01-26T08:55:08.732Z,0.30
2023-01-26T08:56:41.424Z,0.30
2023-01-26T08:58:15.442Z,0.30
2023-01-26T08:59:48.127Z,0.30
2023-01-26T09:01:20.857Z,0.30
2023-01-26T09:02:59.569Z,0.30
2023-01-26T09:04:32.388Z,0.30
2023-01-26T09:06:06.757Z,0.30
2023-01-26T09:07:39.821Z,0.30
2023-01-26T09:09:13.214Z,0.30
2023-01-26T09:10:45.960Z,0.30
2023-01-26T09:12:18.654Z,0.30
2023-01-26T09:13:56.569Z,0.30
2023-01-26T09:15:29.411Z,0.40
2023-01-26T09:17:02.089Z,0.40
2023-01-26T09:18:35.214Z,0.40
2023-01-26T09:20:09.781Z,0.40
2023-01-26T09:21:42.608Z,0.40
2023-01-26T09:23:17.824Z,0.40
2023-01-26T09:24:50.529Z,0.40
2023-01-26T09:26:23.220Z,0.40
2023-01-26T09:27:55.912Z,0.40
2023-01-26T09:29:29.936Z,0.40
2023-01-26T09:31:05.700Z,0.40
2023-01-26T09:32:38.721Z,0.40
2023-01-26T09:34:11.400Z,0.40
2023-01-26T09:35:44.198Z,0.40
2023-01-26T09:37:16.918Z,0.40
2023-01-26T09:38:51.014Z,0.40
2023-01-26T09:40:32.124Z,0.40
2023-01-26T09:42:21.224Z,0.40
2023-01-26T09:43:56.491Z,0.40
2023-01-26T09:45:39.528Z,0.40
2023-01-26T09:47:21.440Z,0.40
2023-01-26T09:49:06.015Z,0.40
2023-01-26T09:50:44.451Z,0.40
2023-01-26T09:52:24.151Z,0.40
2023-01-26T09:53:59.314Z,0.40
2023-01-26T09:55:32.057Z,0.40
2023-01-26T09:57:14.494Z,0.40
2023-01-26T09:58:51.672Z,0.40
2023-01-26T10:00:28.948Z,0.40
2023-01-26T10:02:18.754Z,0.40
2023-01-26T10:03:57.316Z,0.40
2023-01-26T10:05:51.532Z,0.40
2023-01-26T10:07:24.274Z,0.40
2023-01-26T10:08:58.855Z,0.40
2023-01-26T10:10:36.105Z,0.40
2023-01-26T10:12:15.966Z,0.40
2023-01-26T10:13:54.691Z,0.40
2023-01-26T10:15:32.660Z,0.40
2023-01-26T10:17:08.364Z,0.40
2023-01-26T10:18:51.064Z,0.40
2023-01-26T10:20:29.630Z,0.50
2023-01-26T10:22:09.416Z,0.50
2023-01-26T10:23:48.306Z,0.30
2023-01-26T10:25:28.747Z,0.50
2023-01-26T10:27:01.551Z,0.50
2023-01-26T10:28:36.536Z,0.50
2023-01-26T10:30:14.729Z,0.50
2023-01-26T10:31:47.629Z,0.50
2023-01-26T10:33:26.109Z,0.50
2023-01-26T10:34:59.906Z,0.50
2023-01-26T10:36:33.611Z,0.50
2023-01-26T10:38:44.171Z,0.50
2023-01-26T10:40:18.285Z,0.50
2023-01-26T10:41:59.214Z,0.40
2023-01-26T10:43:35.883Z,0.40
2023-01-26T10:45:26.219Z,0.50
2023-01-26T10:47:08.078Z,0.50
2023-01-26T10:48:52.957Z,0.50
2023-01-26T10:50:26.763Z,0.50
2023-01-26T10:52:17.283Z,0.50
2023-01-26T10:53:50.151Z,0.50
2023-01-26T10:55:22.993Z,0.50
2023-01-26T10:56:58.136Z,0.50
2023-01-26T10:58:44.799Z,0.50
2023-01-26T11:00:25.432Z,0.40
2023-01-26T11:02:01.138Z,0.40
2023-01-26T11:03:33.869Z,0.30
2023-01-26T11:05:29.043Z,0.30
2023-01-26T11:07:26.352Z,0.20
2023-01-26T11:09:11.246Z,0.20
2023-01-26T11:10:53.251Z,0.20
2023-01-26T11:12:26.601Z,0.20
2023-01-26T11:14:13.756Z,0.20
2023-01-26T11:15:48.626Z,0.20
2023-01-26T11:17:25.190Z,0.20
2023-01-26T11:19:01.089Z,0.20
2023-01-26T11:20:48.576Z,0.20
2023-01-26T11:22:29.827Z,0.20
2023-01-26T11:24:06.102Z,0.20
2023-01-26T11:25:46.673Z,0.20
2023-01-26T11:27:29.987Z,0.20
2023-01-26T11:29:19.213Z,0.20
2023-01-26T11:31:13.337Z,0.20
2023-01-26T11:32:56.216Z,0.10
2023-01-26T11:34:36.657Z,0.10
2023-01-26T11:36:20.518Z,0.10
2023-01-26T11:38:02.228Z,0.00
2023-01-26T11:39:43.145Z,0.00
2023-01-26T11:41:28.879Z,0.10
2023-01-26T11:43:24.538Z,0.10
2023-01-26T11:45:18.291Z,0.10
2023-01-26T11:47:06.187Z,0.10
2023-01-26T11:48:49.797Z,0.10
2023-01-26T11:50:31.456Z,0.10
2023-01-26T11:52:14.415Z,0.10
2023-01-26T11:54:08.021Z,0.10
2023-01-26T11:55:56.346Z,0.10
2023-01-26T11:57:38.959Z,0.10
2023-01-26T11:59:16.378Z,0.10
2023-01-26T12:00:52.430Z,0.10
2023-01-26T12:02:30.744Z,0.10
2023-01-26T12:04:03.487Z,0.10
2023-01-26T12:05:42.797Z,0.10
2023-01-26T12:07:21.682Z,0.10
2023-01-26T12:08:59.196Z,0.10
2023-01-26T12:10:37.517Z,0.10
2023-01-26T12:12:15.424Z,0.20
2023-01-26T12:13:53.264Z,0.20
2023-01-26T12:15:30.426Z,0.20
2023-01-26T12:17:37.050Z,0.20
2023-01-26T12:19:29.712Z,0.10
2023-01-26T12:21:06.778Z,0.20
2023-01-26T12:22:47.434Z,0.20
2023-01-26T12:25:04.812Z,0.20
2023-01-26T12:26:33.684Z,0.30
2023-01-26T12:28:16.515Z,0.40
2023-01-26T12:29:53.758Z,0.40
2023-01-26T12:31:33.038Z,0.40
2023-01-26T12:33:06.198Z,0.40
2023-01-26T12:34:39.005Z,0.40
2023-01-26T12:36:37.197Z,0.40
2023-01-26T12:38:18.371Z,0.40
2023-01-26T12:40:02.293Z,0.40
2023-01-26T12:41:46.000Z,0.30
2023-01-26T12:43:29.140Z,0.30
2023-01-26T12:45:02.750Z,0.40
2023-01-26T12:46:40.309Z,0.50
2023-01-26T12:48:17.369Z,0.50
2023-01-26T12:49:57.191Z,0.40
2023-01-26T12:51:33.625Z,0.50
2023-01-26T12:53:12.311Z,0.50
2023-01-26T12:54:50.663Z,0.40
2023-01-26T12:56:27.383Z,0.50
2023-01-26T12:58:03.144Z,0.50
2023-01-26T12:59:48.206Z,0.50
2023-01-26T13:01:23.696Z,0.50
2023-01-26T13:03:00.304Z,0.50
2023-01-26T13:04:33.037Z,0.60
2023-01-26T13:06:20.444Z,0.60
2023-01-26T13:07:53.148Z,0.60
2023-01-26T13:09:27.094Z,0.60
2023-01-26T13:11:04.549Z,0.60
2023-01-26T13:12:48.135Z,0.60
2023-01-26T13:14:56.665Z,0.60
2023-01-26T13:16:33.890Z,0.60
2023-01-26T13:18:06.596Z,0.60
2023-01-26T13:19:53.340Z,0.60
2023-01-26T13:21:29.280Z,0.60
2023-01-26T13:23:02.025Z,0.60
2023-01-26T13:24:46.749Z,0.70
2023-01-26T13:26:26.282Z,0.70
2023-01-26T13:28:00.978Z,0.70
2023-01-26T13:29:35.423Z,0.60
2023-01-26T13:31:10.050Z,0.70
2023-01-26T13:32:54.258Z,0.70
2023-01-26T13:34:30.191Z,0.60
2023-01-26T13:36:06.903Z,0.60
2023-01-26T13:37:49.154Z,0.60
2023-01-26T13:39:28.799Z,0.60
2023-01-26T13:41:03.777Z,0.60
2023-01-26T13:42:48.484Z,0.50
2023-01-26T13:44:24.519Z,0.60
2023-01-26T13:46:03.899Z,0.60
2023-01-26T13:47:41.781Z,0.60
2023-01-26T13:49:25.831Z,0.60
2023-01-26T13:51:02.057Z,0.60
2023-01-26T13:52:34.759Z,0.60
2023-01-26T13:54:11.888Z,0.60
2023-01-26T13:55:44.741Z,0.60
2023-01-26T13:57:23.217Z,0.50
2023-01-26T13:59:09.078Z,0.50
2023-01-26T14:00:41.888Z,0.50
2023-01-26T14:02:23.763Z,0.50
2023-01-26T14:04:04.189Z,0.50
2023-01-26T14:05:37.078Z,0.50
2023-01-26T14:07:15.528Z,0.50
2023-01-26T14:08:53.416Z,0.50
2023-01-26T14:10:26.960Z,0.50
2023-01-26T14:12:02.488Z,0.50
2023-01-26T14:13:37.957Z,0.50
2023-01-26T14:15:23.252Z,0.50
2023-01-26T14:16:58.544Z,0.40
2023-01-26T14:18:31.664Z,0.50
2023-01-26T14:20:19.733Z,0.50
2023-01-26T14:21:53.921Z,0.50
2023-01-26T14:23:29.091Z,0.50
2023-01-26T14:25:01.796Z,0.50
2023-01-26T14:26:34.945Z,0.60
2023-01-26T14:28:13.748Z,0.50
2023-01-26T14:29:47.584Z,0.60
2023-01-26T14:31:24.059Z,0.60
2023-01-26T14:33:03.849Z,0.70
2023-01-26T14:34:36.577Z,0.70
2023-01-26T14:36:16.839Z,0.70
2023-01-26T14:37:49.752Z,0.70
2023-01-26T14:39:22.532Z,0.70
2023-01-26T14:40:56.854Z,0.80
2023-01-26T14:42:29.693Z,0.70
2023-01-26T14:44:04.897Z,0.70
2023-01-26T14:45:40.249Z,0.70
2023-01-26T14:47:21.551Z,0.70
2023-01-26T14:48:58.551Z,0.80
2023-01-26T14:50:32.260Z,0.80
2023-01-26T14:52:05.226Z,0.80
2023-01-26T14:53:38.367Z,0.80
2023-01-26T14:55:18.912Z,0.80
2023-01-26T14:56:51.732Z,0.70
2023-01-26T14:58:30.593Z,0.70
2023-01-26T15:00:08.803Z,0.70
2023-01-26T15:01:41.694Z,0.60
2023-01-26T15:03:23.277Z,0.60
2023-01-26T15:04:59.636Z,0.60
2023-01-26T15:06:32.958Z,0.50
2023-01-26T15:08:07.778Z,0.50
2023-01-26T15:09:40.453Z,0.50
2023-01-26T15:11:36.392Z,0.60
2023-01-26T15:13:21.471Z,0.60
2023-01-26T15:14:58.120Z,0.60
2023-01-26T15:16:30.835Z,0.60
2023-01-26T15:18:20.927Z,0.60
2023-01-26T15:19:53.807Z,0.50
2023-01-26T15:21:33.647Z,0.60
2023-01-26T15:23:22.635Z,0.50
2023-01-26T15:25:06.560Z,0.50
2023-01-26T15:26:39.362Z,0.60
2023-01-26T15:28:19.253Z,0.50
2023-01-26T15:29:59.042Z,0.50
2023-01-26T15:31:35.191Z,0.50
2023-01-26T15:33:34.560Z,0.50
2023-01-26T15:35:20.890Z,0.50
2023-01-26T15:36:53.641Z,0.50
2023-01-26T15:38:26.330Z,0.60
2023-01-26T15:39:59.075Z,0.60
2023-01-26T15:41:31.891Z,0.60
2023-01-26T15:43:12.724Z,0.70
2023-01-26T15:44:45.497Z,0.70
2023-01-26T15:46:18.328Z,0.70
2023-01-26T15:47:51.314Z,0.70
2023-01-26T15:49:24.131Z,0.70
2023-01-26T15:50:58.421Z,0.60
2023-01-26T15:52:31.246Z,0.70
2023-01-26T15:54:04.099Z,0.70
2023-01-26T15:55:37.471Z,0.70
2023-01-26T15:57:11.211Z,0.70
2023-01-26T15:58:44.322Z,0.70
2023-01-26T16:00:18.313Z,0.70
2023-01-26T16:01:51.078Z,0.60
2023-01-26T16:03:23.807Z,0.60
2023-01-26T16:04:56.561Z,0.60
2023-01-26T16:06:33.214Z,0.60
2023-01-26T16:08:06.213Z,0.60
2023-01-26T16:09:38.980Z,0.60
2023-01-26T16:11:13.487Z,0.70
2023-01-26T16:12:46.712Z,0.70
2023-01-26T16:14:20.156Z,0.70
2023-01-26T16:15:54.305Z,0.70
2023-01-26T16:17:27.165Z,0.70
2023-01-26T16:19:00.090Z,0.70
2023-01-26T16:20:32.871Z,0.70
2023-01-26T16:22:07.022Z,0.80
2023-01-26T16:23:39.743Z,0.80
2023-01-26T16:25:22.201Z,0.80
2023-01-26T16:26:54.914Z,0.80
2023-01-26T16:28:27.596Z,0.80
2023-01-26T16:30:00.281Z,0.80
2023-01-26T16:31:34.561Z,0.90
2023-01-26T16:33:07.282Z,0.80
2023-01-26T16:34:39.965Z,0.80
2023-01-26T16:36:14.709Z,0.80
2023-01-26T16:37:49.151Z,0.80
2023-01-26T16:39:21.853Z,0.90
2023-01-26T16:40:55.125Z,0.80
2023-01-26T16:42:27.957Z,0.90
2023-01-26T16:44:02.666Z,0.90
2023-01-26T16:45:35.357Z,0.80
2023-01-26T16:47:11.065Z,0.90
2023-01-26T16:48:43.797Z,0.90
2023-01-26T16:50:17.132Z,0.80
2023-01-26T16:51:49.837Z,0.90
2023-01-26T16:53:27.305Z,0.90
2023-01-26T16:54:59.993Z,0.90
2023-01-26T16:56:33.152Z,0.90
2023-01-26T16:58:05.820Z,0.90
2023-01-26T16:59:38.833Z,0.90
2023-01-26T17:01:19.299Z,0.80
2023-01-26T17:02:53.544Z,0.90
2023-01-26T17:04:26.268Z,0.90
2023-01-26T17:05:59.211Z,0.90
2023-01-26T17:07:31.892Z,0.90
2023-01-26T17:09:05.948Z,0.90
2023-01-26T17:10:51.915Z,0.90
2023-01-26T17:12:32.876Z,0.80
2023-01-26T17:14:05.679Z,0.90
2023-01-26T17:15:38.439Z,0.90
2023-01-26T17:17:11.317Z,0.90
2023-01-26T17:18:45.026Z,0.90
2023-01-26T17:20:19.645Z,0.80
2023-01-26T17:21:52.793Z,0.90
2023-01-26T17:23:25.472Z,0.90
2023-01-26T17:24:59.711Z,0.90
2023-01-26T17:26:32.410Z,0.90
2023-01-26T17:28:05.198Z,0.90
2023-01-26T17:29:39.608Z,0.90
2023-01-26T17:31:14.042Z,0.90
2023-01-26T17:32:46.909Z,0.90
2023-01-26T17:34:21.086Z,0.90
2023-01-26T17:36:00.585Z,0.90
2023-01-26T17:37:33.287Z,0.90
2023-01-26T17:39:05.965Z,0.90
2023-01-26T17:40:39.977Z,0.90
2023-01-26T17:42:12.899Z,0.90
2023-01-26T17:43:46.102Z,0.90
2023-01-26T17:45:18.911Z,0.90
2023-01-26T17:46:51.595Z,0.90
2023-01-26T17:48:24.353Z,0.90
2023-01-26T17:49:57.025Z,0.80
2023-01-26T17:51:29.689Z,0.90
2023-01-26T17:53:02.398Z,0.80
2023-01-26T17:54:35.325Z,0.90
2023-01-26T17:56:11.157Z,0.90
2023-01-26T17:57:43.930Z,0.80
2023-01-26T17:59:16.672Z,0.80
2023-01-26T18:00:49.402Z,0.80
2023-01-26T18:02:22.154Z,0.80
2023-01-26T18:03:54.895Z,0.80
2023-01-26T18:05:28.063Z,0.80
2023-01-26T18:07:02.050Z,0.80
2023-01-26T18:08:34.900Z,0.90
2023-01-26T18:10:09.284Z,0.80
2023-01-26T18:11:43.291Z,0.90
2023-01-26T18:13:16.586Z,0.90
2023-01-26T18:14:49.492Z,0.80
2023-01-26T18:16:22.949Z,0.80
2023-01-26T18:17:55.625Z,0.80
2023-01-26T18:19:28.426Z,0.80
2023-01-26T18:21:12.161Z,0.90
2023-01-26T18:22:44.879Z,0.80
2023-01-26T18:24:17.682Z,0.80
2023-01-26T18:25:51.092Z,0.90
2023-01-26T18:27:25.412Z,0.90
2023-01-26T18:28:58.561Z,0.90
2023-01-26T18:30:31.413Z,0.80
2023-01-26T18:32:04.508Z,0.80
2023-01-26T18:33:37.329Z,0.80
2023-01-26T18:35:10.970Z,0.80
2023-01-26T18:36:43.868Z,0.80
2023-01-26T18:38:16.584Z,0.70
2023-01-26T18:39:49.462Z,0.80
2023-01-26T18:41:23.738Z,0.80
2023-01-26T18:42:58.122Z,0.80
2023-01-26T18:44:31.289Z,0.80
2023-01-26T18:46:04.864Z,0.80
2023-01-26T18:47:37.663Z,0.80
2023-01-26T18:49:11.417Z,0.80
2023-01-26T18:50:48.663Z,0.80
2023-01-26T18:52:21.391Z,0.80
2023-01-26T18:53:54.131Z,0.80
2023-01-26T18:55:26.941Z,0.80
2023-01-26T18:56:59.675Z,0.80
2023-01-26T18:58:34.199Z,0.80
2023-01-26T19:00:09.100Z,0.80
2023-01-26T19:01:43.588Z,0.80
2023-01-26T19:03:18.040Z,0.80
2023-01-26T19:04:53.495Z,0.80
2023-01-26T19:06:28.252Z,0.80
2023-01-26T19:08:09.855Z,0.80
2023-01-26T19:09:42.533Z,0.80
2023-01-26T19:11:15.459Z,0.80
2023-01-26T19:12:50.222Z,0.80
2023-01-26T19:14:24.271Z,0.80
2023-01-26T19:15:56.945Z,0.80
2023-01-26T19:17:29.675Z,0.80
2023-01-26T19:19:02.416Z,0.80
2023-01-26T19:20:35.124Z,0.90
2023-01-26T19:22:07.795Z,0.90
2023-01-26T19:23:42.525Z,0.90
2023-01-26T19:25:15.327Z,0.90
2023-01-26T19:26:48.189Z,0.90
2023-01-26T19:28:21.152Z,0.90
2023-01-26T19:29:55.300Z,0.90
2023-01-26T19:31:28.858Z,0.90
2023-01-26T19:33:19.101Z,0.90
2023-01-26T19:34:51.773Z,0.90
2023-01-26T19:36:24.811Z,0.90
2023-01-26T19:37:57.543Z,0.90
2023-01-26T19:39:31.057Z,0.90
2023-01-26T19:41:03.780Z,0.90
2023-01-26T19:42:36.479Z,0.90
2023-01-26T19:44:09.361Z,0.90
2023-01-26T19:45:48.643Z,0.90
2023-01-26T19:47:21.348Z,0.90
2023-01-26T19:48:54.085Z,0.90
2023-01-26T19:50:26.967Z,0.90
2023-01-26T19:51:59.705Z,0.90
2023-01-26T19:53:33.031Z,0.90
2023-01-26T19:55:06.297Z,0.90
2023-01-26T19:56:39.243Z,0.90
2023-01-26T19:58:11.937Z,0.90
2023-01-26T19:59:44.623Z,0.90
2023-01-26T20:01:18.782Z,0.90
2023-01-26T20:02:51.508Z,0.90
2023-01-26T20:04:24.177Z,0.90
2023-01-26T20:05:57.323Z,0.90
2023-01-26T20:07:30.062Z,0.90
2023-01-26T20:09:04.348Z,0.90
2023-01-26T20:10:37.044Z,0.90
2023-01-26T20:12:11.059Z,1.00
2023-01-26T20:13:43.782Z,0.90
2023-01-26T20:15:16.587Z,1.00
2023-01-26T20:16:50.678Z,1.00
2023-01-26T20:18:23.423Z,1.00
2023-01-26T20:19:56.105Z,1.00
2023-01-26T20:21:29.970Z,1.00
2023-01-26T20:23:02.664Z,1.00
2023-01-26T20:24:35.506Z,1.00
2023-01-26T20:26:10.105Z,1.00
2023-01-26T20:27:43.095Z,1.00
2023-01-26T20:29:17.920Z,1.00
2023-01-26T20:30:50.609Z,1.00
2023-01-26T20:32:24.752Z,1.00
2023-01-26T20:33:58.333Z,1.00
2023-01-26T20:35:31.480Z,1.00
2023-01-26T20:37:04.619Z,1.00
2023-01-26T20:38:37.870Z,1.00
2023-01-26T20:40:12.628Z,1.00
2023-01-26T20:41:45.481Z,1.00
2023-01-26T20:43:18.163Z,1.00
2023-01-26T20:44:50.879Z,1.00
2023-01-26T20:46:23.599Z,1.10
2023-01-26T20:47:58.126Z,1.00
2023-01-26T20:49:30.836Z,1.10
2023-01-26T20:51:10.939Z,1.10
2023-01-26T20:52:44.421Z,1.10
2023-01-26T20:54:18.673Z,1.10
2023-01-26T20:55:57.988Z,1.10
2023-01-26T20:57:32.185Z,1.10
2023-01-26T20:59:05.952Z,1.00
2023-01-26T21:00:38.667Z,1.10
2023-01-26T21:02:14.121Z,1.10
2023-01-26T21:03:48.319Z,1.10
2023-01-26T21:05:21.071Z,1.10
2023-01-26T21:06:55.293Z,1.10
2023-01-26T21:08:28.515Z,1.10
2023-01-26T21:10:01.204Z,1.10
2023-01-26T21:11:34.874Z,1.10
2023-01-26T21:13:07.570Z,1.10
2023-01-26T21:14:40.333Z,1.10
2023-01-26T21:16:15.640Z,1.10